Date,TemperatureHighF,TemperatureAvgF,TemperatureLowF,DewpointHighF,DewpointAvgF,DewpointLowF,HumidityHigh,HumidityAvg,HumidityLow,PressureMaxIn,PressureMinIn,WindSpeedMaxMPH,WindSpeedAvgMPH,GustSpeedMaxMPH,PrecipitationSumIn
2013-1-1,51.3,40.9,34.3,37.9,34.0,30.2,98,78,46,30.16,30.07,14,0,14,0.00
2013-1-2,50.7,40.5,32.2,39.9,33.5,26.4,95,77,51,30.12,30.02,7,0,7,0.00
2013-1-3,50.7,39.3,32.5,43.0,35.7,30.9,96,88,61,30.16,30.04,5,0,5,0.01
2013-1-4,52.2,41.0,34.2,43.9,38.2,33.3,98,90,69,30.17,30.06,4,0,5,0.00
2013-1-5,49.5,43.4,35.4,45.3,41.7,34.3,98,94,84,30.13,29.94,6,0,6,0.30
2013-1-6,49.6,44.0,37.2,46.8,42.7,36.5,98,95,84,30.06,29.94,6,0,6,0.31
2013-1-7,56.3,45.3,37.0,52.2,43.7,36.3,99,94,80,30.14,30.02,7,0,7,0.00
2013-1-8,55.6,45.7,40.3,52.3,44.7,39.7,99,96,89,30.11,30.01,4,0,4,0.00
2013-1-9,50.2,43.4,37.4,48.7,42.6,36.3,99,97,90,30.03,29.84,13,0,14,0.03
2013-1-10,46.6,39.5,31.6,37.8,34.5,30.7,98,83,61,30.06,29.93,12,1,13,0.01
2013-1-11,47.7,39.6,31.6,41.7,34.7,29.5,97,83,65,30.13,29.99,13,0,14,0.01
2013-1-12,45.3,37.1,29.7,36.0,30.6,27.5,93,78,50,30.12,30.02,6,0,6,0.00
2013-1-13,46.2,36.7,26.2,35.8,26.0,10.2,92,69,23,30.15,30.06,12,0,15,0.00
2013-1-14,48.6,40.7,34.5,34.5,24.5,9.1,90,55,24,30.27,30.11,11,0,11,0.00
2013-1-15,48.4,37.8,32.2,38.3,33.0,29.8,93,84,61,30.36,30.27,4,0,4,0.00
2013-1-16,52.2,39.5,30.9,42.3,35.1,29.7,97,85,61,30.32,30.14,3,0,3,0.00
2013-1-17,54.1,41.6,32.9,44.6,37.9,31.8,100,87,66,30.15,30.04,5,0,5,0.00
2013-1-18,56.5,43.2,33.6,45.1,37.9,32.0,96,82,56,30.11,30.01,4,0,4,0.00
2013-1-19,64.2,46.9,37.9,42.8,35.6,27.1,88,68,27,30.12,30.03,5,0,6,0.00
2013-1-20,57.7,44.8,36.3,42.4,36.1,30.4,84,72,49,30.11,30.00,3,0,3,0.00
2013-1-21,57.9,46.0,35.2,43.7,36.8,29.5,89,71,49,30.05,29.96,6,0,7,0.00
2013-1-22,59.4,47.6,37.0,45.1,38.7,32.0,88,72,50,29.99,29.88,5,0,5,0.00
2013-1-23,52.3,49.6,47.8,49.3,44.8,40.1,100,84,66,29.96,29.83,4,0,5,0.13
2013-1-24,56.7,50.7,47.7,55.6,50.0,47.1,99,98,93,30.06,29.94,4,0,4,0.14
2013-1-25,61.2,52.8,47.1,56.3,51.2,46.6,99,94,78,30.06,29.91,6,0,7,0.00
2013-1-26,54.5,47.8,40.5,48.4,42.4,36.9,99,83,56,29.94,29.83,10,0,10,0.00
2013-1-27,50.5,41.8,32.4,39.4,35.7,31.3,100,80,49,30.05,29.92,11,0,12,0.00
2013-1-28,54.7,45.0,36.1,42.8,38.6,33.8,95,79,57,30.15,30.03,10,0,10,0.00
2013-1-29,56.5,46.0,36.1,45.1,40.2,34.3,95,81,56,30.23,30.14,7,0,7,0.00
2013-1-30,61.0,50.7,42.4,49.8,43.8,39.0,96,78,47,30.21,30.12,10,0,10,0.00
2013-1-31,61.9,48.2,39.4,50.2,43.9,38.5,100,87,57,30.17,30.06,6,0,6,0.00
2013-2-1,64.4,49.5,39.6,49.5,44.0,38.8,99,83,45,30.08,29.99,5,0,6,0.00
2013-2-2,55.9,46.4,40.5,50.7,44.2,39.6,98,92,81,30.18,30.08,5,0,5,0.00
2013-2-3,56.3,46.9,39.7,50.0,45.0,39.0,98,93,78,30.13,30.01,6,0,6,0.01
2013-2-4,56.1,45.5,37.6,50.2,43.6,37.0,100,93,78,30.05,29.94,5,0,5,0.01
2013-2-5,56.7,47.2,39.6,49.5,43.9,37.9,97,89,71,30.03,29.91,12,0,12,0.00
2013-2-6,54.1,43.0,34.3,45.0,38.9,33.6,98,86,58,30.07,29.98,8,0,8,0.00
2013-2-7,50.7,43.7,35.1,46.4,40.2,33.8,98,88,56,30.04,29.86,10,0,10,0.02
2013-2-8,53.1,43.1,34.0,42.1,35.7,27.3,98,78,43,29.88,29.81,10,0,11,0.02
2013-2-9,56.7,44.2,34.5,38.3,31.1,23.9,85,63,30,29.96,29.87,9,0,9,0.00
2013-2-10,58.6,44.9,34.3,45.9,36.3,30.0,87,73,44,29.99,29.88,7,0,9,0.00
2013-2-11,63.7,49.5,39.7,41.2,34.4,29.1,87,59,28,30.09,29.95,10,0,10,0.00
2013-2-12,60.8,46.5,37.9,48.2,41.3,35.4,98,83,46,30.22,30.09,7,0,7,0.00
2013-2-13,60.8,47.4,37.8,48.0,41.7,36.7,98,83,48,30.21,30.08,6,0,7,0.00
2013-2-14,66.4,51.2,39.6,51.8,45.2,37.9,96,81,54,30.12,30.03,6,0,6,0.00
2013-2-15,66.9,53.2,43.0,49.5,43.2,36.9,91,70,40,30.13,30.06,5,0,5,0.00
2013-2-16,66.0,52.1,42.3,50.2,44.5,39.9,94,77,50,30.11,29.91,4,0,4,0.00
2013-2-17,60.1,46.9,37.8,47.8,40.4,34.2,98,80,56,29.92,29.85,7,0,9,0.00
2013-2-18,51.4,43.3,35.1,43.5,39.4,33.4,97,86,72,29.89,29.80,11,0,11,0.00
2013-2-19,46.2,40.3,32.5,43.3,37.1,30.9,97,88,67,29.83,29.61,11,0,11,0.34
2013-2-20,55.2,43.1,31.3,41.0,35.5,30.0,97,77,48,29.93,29.73,13,0,13,0.00
2013-2-21,58.3,45.3,32.7,41.2,34.8,26.4,97,71,31,30.04,29.92,13,0,13,0.00
2013-2-22,61.0,47.5,36.7,45.3,39.4,34.5,94,76,39,30.11,30.03,11,0,11,0.00
2013-2-23,56.1,48.3,41.5,44.4,36.0,29.1,92,65,36,30.13,30.03,18,1,18,0.00
2013-2-24,63.5,49.4,39.4,41.0,29.4,15.4,78,50,16,30.13,30.03,11,0,11,0.00
2013-2-25,61.9,47.9,36.1,45.7,38.7,33.1,94,73,39,30.14,30.03,9,0,9,0.00
2013-2-26,66.4,50.2,37.0,41.2,33.1,19.2,94,58,19,30.08,30.01,12,0,12,0.00
2013-2-27,64.9,51.2,36.9,45.3,37.8,30.7,82,63,33,30.22,30.06,7,0,7,0.00
2013-2-28,65.5,55.1,47.1,55.0,49.2,43.3,96,81,60,30.30,30.21,11,0,12,0.00
2013-3-1,70.0,55.0,44.4,55.6,49.8,43.7,99,84,53,30.30,30.11,7,0,7,0.00
2013-3-2,70.3,58.1,48.9,55.4,51.1,47.3,100,79,53,30.11,29.92,9,0,9,0.00
2013-3-3,63.0,52.0,41.5,52.2,47.0,40.1,96,84,62,29.94,29.88,13,0,13,0.00
2013-3-4,55.2,45.6,39.0,49.6,43.2,37.4,98,92,77,30.02,29.92,10,0,10,0.00
2013-3-5,54.0,45.8,36.7,46.6,41.9,35.2,97,87,70,29.94,29.65,11,1,11,0.27
2013-3-6,52.5,46.2,36.7,47.5,42.3,35.6,100,87,62,29.93,29.66,13,1,14,0.57
2013-3-7,53.8,44.9,35.6,44.2,39.0,34.5,98,81,56,29.87,29.74,7,0,7,0.00
2013-3-8,60.1,46.7,34.5,47.1,39.6,32.9,98,78,42,29.90,29.71,11,0,12,0.00
2013-3-9,66.7,49.5,35.8,48.0,40.4,29.8,97,75,26,30.18,29.90,13,0,13,0.00
2013-3-10,67.8,52.5,40.8,46.4,39.8,34.5,90,64,35,30.21,30.12,10,0,11,0.00
2013-3-11,70.3,52.5,40.6,48.4,40.9,34.3,86,67,40,30.13,29.97,6,0,7,0.00
2013-3-12,72.0,55.2,42.3,56.7,48.2,41.0,98,79,54,30.03,29.94,7,0,7,0.00
2013-3-13,73.8,58.0,44.8,58.1,50.9,43.3,98,80,49,30.03,29.93,8,0,8,0.00
2013-3-14,71.2,57.1,46.9,57.7,50.5,43.7,98,80,48,30.03,29.94,9,0,10,0.00
2013-3-15,71.6,56.0,43.9,55.9,47.4,41.7,93,75,45,29.99,29.89,10,0,10,0.00
2013-3-16,71.2,57.5,43.9,52.0,44.1,36.1,98,66,29,29.97,29.87,14,1,14,0.00
2013-3-17,67.1,53.8,40.8,48.6,41.8,37.0,92,66,35,30.01,29.91,10,1,11,0.00
2013-3-18,66.9,52.4,39.7,50.4,43.9,38.1,98,75,48,29.97,29.89,9,0,9,0.00
2013-3-19,61.5,50.9,42.6,49.6,44.1,39.9,95,79,49,30.00,29.91,6,0,6,0.06
2013-3-20,56.7,50.7,45.1,55.6,49.6,43.5,98,96,93,30.00,29.92,5,0,5,0.55
2013-3-21,61.5,49.2,36.5,48.7,43.5,35.4,98,82,54,29.99,29.88,10,0,10,0.01
2013-3-22,64.6,51.1,36.7,43.7,35.4,19.2,96,61,21,29.99,29.90,13,0,13,0.00
2013-3-23,65.8,50.6,36.9,45.0,37.9,32.5,85,65,34,30.01,29.91,9,0,10,0.00
2013-3-24,69.4,53.0,38.8,51.8,43.2,36.5,95,72,41,29.95,29.83,9,0,9,0.00
2013-3-25,58.3,47.2,37.9,48.6,43.1,36.9,98,86,63,29.88,29.81,11,1,12,0.00
2013-3-26,64.6,50.3,39.9,51.3,44.5,38.7,97,82,57,29.86,29.80,11,0,12,0.00
2013-3-27,58.8,50.6,41.5,53.2,47.7,40.3,98,90,77,29.88,29.81,7,0,7,0.00
2013-3-28,60.8,52.9,47.1,55.4,50.2,45.7,98,91,76,29.96,29.87,6,0,6,0.00
2013-3-29,74.8,58.3,43.2,57.4,50.8,42.4,99,79,41,29.96,29.88,10,0,10,0.00
2013-3-30,64.8,56.2,51.1,56.8,52.1,48.9,96,86,73,29.93,29.86,7,0,7,0.09
2013-3-31,63.7,54.9,49.8,56.7,52.7,48.7,98,93,68,29.94,29.86,9,0,10,0.29
2013-4-1,59.4,53.6,46.6,56.3,52.0,45.5,98,94,87,30.02,29.91,6,0,6,0.31
2013-4-2,65.7,52.5,43.5,57.4,49.5,42.8,99,90,72,30.05,29.96,9,0,10,0.01
2013-4-3,71.8,55.0,43.3,58.5,50.3,42.6,99,86,59,30.00,29.85,9,0,9,0.00
2013-4-4,58.5,53.1,48.7,57.9,52.1,47.1,100,96,91,29.98,29.84,7,0,7,0.08
2013-4-5,61.0,53.9,49.3,56.3,51.7,47.5,100,93,77,30.05,29.98,11,0,11,0.18
2013-4-6,64.6,54.8,50.5,57.4,52.0,48.6,98,91,70,30.05,30.00,11,0,11,0.00
2013-4-7,60.4,53.1,48.7,57.9,50.3,45.7,98,91,75,30.04,29.67,13,1,13,0.04
2013-4-8,66.4,53.7,43.5,46.6,38.3,19.6,93,60,18,29.91,29.66,25,2,25,0.02
2013-4-9,73.9,62.1,51.8,48.9,36.1,20.5,72,42,15,29.98,29.91,15,1,15,0.00
2013-4-10,81.7,67.1,51.4,59.9,49.7,37.9,83,55,33,30.04,29.89,12,1,12,0.00
2013-4-11,72.3,59.7,45.9,55.2,48.7,43.2,93,69,38,29.90,29.70,18,1,18,0.00
2013-4-12,72.9,55.6,42.4,56.5,46.6,41.4,100,74,42,29.78,29.68,10,0,10,0.00
2013-4-13,71.8,57.1,44.1,55.2,45.0,38.7,93,67,43,29.76,29.66,13,1,14,0.00
2013-4-14,70.0,55.0,41.0,46.6,40.4,31.1,87,60,31,29.80,29.70,18,2,18,0.00
2013-4-15,59.4,49.9,40.8,44.4,37.8,32.9,91,66,40,29.83,29.71,19,2,19,0.00
2013-4-16,65.8,52.3,37.0,40.6,31.1,19.8,86,50,18,30.04,29.83,12,1,12,0.00
2013-4-17,67.6,58.1,46.0,38.1,28.9,19.6,65,35,17,30.14,30.04,13,1,15,0.00
2013-4-18,74.7,60.1,47.3,51.6,39.3,31.5,74,48,26,30.12,30.05,10,0,10,0.00
2013-4-19,77.2,61.7,45.9,58.5,48.2,41.0,93,64,39,30.09,29.93,12,1,14,0.00
2013-4-20,78.3,60.9,45.7,54.5,45.6,37.4,90,61,24,29.97,29.85,12,0,12,0.00
2013-4-21,81.5,63.3,47.5,58.5,48.4,44.1,90,62,31,29.89,29.80,9,0,9,0.00
2013-4-22,87.3,68.6,54.3,56.7,46.7,28.8,78,51,13,29.82,29.72,10,0,10,0.00
2013-4-23,81.1,66.6,46.6,50.2,34.9,16.9,88,36,12,29.79,29.72,12,1,17,0.00
2013-4-24,64.8,51.3,42.1,53.6,46.3,40.3,97,84,62,29.82,29.69,14,1,14,0.00
2013-4-25,62.2,52.5,46.2,53.2,47.8,44.6,95,85,67,29.99,29.82,13,1,13,0.00
2013-4-26,70.2,54.3,46.0,57.0,49.4,44.4,96,85,61,30.09,29.99,11,0,11,0.00
2013-4-27,78.1,56.9,45.7,61.0,50.5,45.0,98,81,45,30.09,29.93,6,0,6,0.00
2013-4-28,82.6,62.1,45.7,62.2,52.7,44.4,98,75,45,29.93,29.75,8,0,9,0.00
2013-4-29,85.8,69.3,53.8,59.5,52.8,48.9,86,59,33,29.76,29.63,11,0,12,0.00
2013-4-30,84.9,67.9,48.2,51.8,34.0,0.3,93,43,5,29.73,29.65,17,1,19,0.00
2013-5-1,83.8,71.4,57.7,43.5,25.4,9.7,51,20,9,29.94,29.70,16,1,17,0.00
2013-5-2,88.2,71.7,55.0,46.0,35.5,16.2,51,28,13,30.01,29.94,10,1,10,0.00
2013-5-3,88.9,67.3,50.0,54.5,42.4,34.2,70,43,20,29.94,29.65,10,0,10,0.00
2013-5-4,86.9,69.6,52.9,52.7,43.4,27.3,90,44,13,29.65,29.42,14,1,14,0.00
2013-5-5,63.7,56.9,53.1,52.5,49.9,48.0,88,78,63,29.68,29.47,8,0,8,0.00
2013-5-6,67.5,57.1,47.7,55.8,51.2,45.9,97,81,58,29.84,29.68,7,0,7,0.00
2013-5-7,70.2,58.3,50.2,55.9,51.8,48.4,97,81,53,29.90,29.83,10,1,12,0.00
2013-5-8,63.3,53.5,48.4,54.7,50.1,46.4,96,89,71,30.00,29.89,15,1,15,0.00
2013-5-9,67.3,54.8,45.3,55.0,49.9,44.2,98,85,63,30.03,29.95,11,1,11,0.00
2013-5-10,76.5,58.6,47.5,60.6,52.1,46.0,97,81,55,30.04,29.95,10,0,10,0.00
2013-5-11,86.4,63.6,45.1,65.1,54.1,44.1,98,75,44,30.00,29.91,11,0,11,0.00
2013-5-12,81.0,62.6,46.6,61.5,52.4,45.3,98,72,44,29.99,29.88,13,1,13,0.00
2013-5-13,82.2,63.9,45.9,61.3,52.7,44.8,98,70,42,29.93,29.79,11,1,12,0.00
2013-5-14,83.1,65.2,50.2,57.6,51.4,45.3,94,64,35,29.82,29.74,11,0,11,0.00
2013-5-15,75.0,59.9,44.6,53.2,47.0,41.5,93,65,38,29.88,29.81,11,1,11,0.00
2013-5-16,70.5,59.5,48.4,56.8,50.2,45.5,90,72,50,29.87,29.80,15,1,15,0.00
2013-5-17,68.9,54.8,41.5,50.9,44.8,39.9,97,72,44,29.93,29.82,13,1,13,0.00
2013-5-18,78.4,60.8,41.7,52.7,46.6,40.1,97,64,32,29.98,29.92,15,1,17,0.00
2013-5-19,83.7,64.5,45.9,51.8,45.0,32.9,91,56,18,29.98,29.85,12,1,12,0.00
2013-5-20,87.3,71.2,51.4,49.1,43.6,37.2,84,41,19,29.86,29.75,17,1,17,0.00
2013-5-21,72.7,60.0,49.6,48.2,43.6,36.9,88,57,30,29.84,29.74,13,2,18,0.00
2013-5-22,67.5,55.0,38.7,41.5,34.9,26.6,75,49,25,29.89,29.75,13,1,13,0.00
2013-5-23,69.4,55.8,40.5,46.0,41.3,37.2,90,61,38,29.86,29.76,14,1,15,0.00
2013-5-24,73.2,56.3,39.0,46.8,42.8,37.0,95,64,36,29.85,29.77,11,1,11,0.00
2013-5-25,71.8,57.6,42.4,48.9,45.3,39.4,92,66,40,29.87,29.80,12,1,12,0.00
2013-5-26,70.3,58.0,46.0,54.3,49.4,44.1,97,75,54,29.96,29.87,16,1,17,0.00
2013-5-27,62.1,54.8,46.0,57.2,51.2,44.1,96,88,75,29.96,29.85,9,0,9,0.17
2013-5-28,72.0,60.5,54.7,58.6,54.9,51.6,98,83,59,29.86,29.78,12,0,12,0.20
2013-5-29,73.8,62.5,54.7,56.8,52.8,47.7,89,72,52,29.82,29.74,15,1,15,0.00
2013-5-30,79.0,62.8,44.8,51.4,46.6,40.8,95,60,27,29.84,29.78,13,1,13,0.00
2013-5-31,88.0,63.1,47.8,54.0,47.9,44.1,92,64,26,29.87,29.80,13,1,14,0.00